Time;durP1;ratioP1;P1;durP2;ratioP2;P2;SDS_P1;SDS_P2;PMS_P1;PMS_P2;Temp;Humidity;BMP_temperature;BMP_pressure;BME280_temperature;BME280_humidity;BME280_pressure;Samples;Min_cycle;Max_cycle;Signal;HPM_P1;HPM_P2
2023/12/18 00:00:13;;;;;;;23.75;8.57;;;9.00;99.90;;;;;;5051189;28;20213;-67
2023/12/18 00:02:39;;;;;;;21.35;9.13;;;9.00;99.90;;;;;;5051583;28;20044;-67
2023/12/18 00:05:06;;;;;;;20.83;8.38;;;9.00;99.90;;;;;;5051184;28;20225;-67
2023/12/18 00:07:31;;;;;;;28.85;9.25;;;9.10;99.90;;;;;;5051592;28;20421;-67
2023/12/18 00:09:57;;;;;;;28.52;9.00;;;9.10;99.90;;;;;;5034514;28;20040;-67
2023/12/18 00:12:23;;;;;;;26.20;8.57;;;9.10;99.90;;;;;;5051676;28;20255;-67
2023/12/18 00:14:48;;;;;;;27.02;8.95;;;9.10;99.90;;;;;;5050722;28;20040;-67
2023/12/18 00:17:14;;;;;;;22.15;8.45;;;9.10;99.90;;;;;;5006690;28;20119;-67
2023/12/18 00:19:40;;;;;;;27.83;9.10;;;9.10;99.90;;;;;;5034300;28;20532;-66
2023/12/18 00:22:05;;;;;;;28.27;9.25;;;9.10;99.90;;;;;;5033474;28;20036;-66
2023/12/18 00:24:31;;;;;;;26.17;9.02;;;9.10;99.90;;;;;;5033509;28;20044;-67
2023/12/18 00:26:57;;;;;;;29.08;9.73;;;9.10;99.90;;;;;;5051123;28;20334;-67
2023/12/18 00:29:23;;;;;;;28.48;9.40;;;9.10;99.90;;;;;;5050318;28;20062;-66
2023/12/18 00:31:48;;;;;;;23.17;9.63;;;9.10;99.90;;;;;;5050486;28;20323;-67
2023/12/18 00:34:14;;;;;;;31.20;10.18;;;9.10;99.90;;;;;;5033829;28;20046;-66
2023/12/18 00:36:40;;;;;;;28.15;9.38;;;9.00;99.90;;;;;;5049855;28;20566;-67
2023/12/18 00:39:05;;;;;;;25.48;9.57;;;9.10;99.90;;;;;;5049852;28;20037;-67
2023/12/18 00:41:32;;;;;;;29.55;10.68;;;9.10;99.90;;;;;;5049934;28;20059;-66
2023/12/18 00:43:57;;;;;;;28.88;10.82;;;9.10;99.90;;;;;;5049561;28;20085;-66
2023/12/18 00:46:25;;;;;;;33.67;10.68;;;9.00;99.90;;;;;;5050898;28;20048;-66
2023/12/18 00:48:51;;;;;;;29.48;10.52;;;9.10;99.90;;;;;;5050176;28;20336;-66
2023/12/18 00:51:17;;;;;;;26.75;10.00;;;9.10;99.90;;;;;;5049535;28;20044;-67
2023/12/18 00:53:42;;;;;;;19.83;8.85;;;9.10;99.90;;;;;;5050274;28;20329;-67
2023/12/18 00:56:08;;;;;;;28.83;9.65;;;9.10;99.90;;;;;;5033805;28;20043;-66
2023/12/18 00:58:34;;;;;;;25.55;9.98;;;9.10;99.90;;;;;;5049492;28;20055;-67
2023/12/18 01:00:59;;;;;;;30.50;9.73;;;9.10;99.90;;;;;;5049913;28;20123;-66
2023/12/18 01:03:25;;;;;;;28.73;10.15;;;9.10;99.90;;;;;;5050197;28;20376;-66
2023/12/18 01:05:51;;;;;;;30.25;9.85;;;9.10;99.90;;;;;;5050482;28;20036;-66
2023/12/18 01:08:17;;;;;;;25.42;9.70;;;9.10;99.90;;;;;;5049346;28;20094;-67
2023/12/18 01:10:43;;;;;;;24.35;9.40;;;9.00;99.90;;;;;;5048189;28;20044;-67
2023/12/18 01:13:08;;;;;;;32.55;9.80;;;9.10;99.90;;;;;;5049422;28;20271;-67
2023/12/18 01:15:34;;;;;;;25.85;9.52;;;9.10;99.90;;;;;;5048553;28;20133;-66
2023/12/18 01:18:00;;;;;;;28.33;9.48;;;9.20;99.90;;;;;;5034029;28;20090;-67
2023/12/18 01:20:25;;;;;;;34.17;10.25;;;9.10;99.90;;;;;;5033307;28;20048;-67
2023/12/18 01:22:51;;;;;;;25.50;9.15;;;9.20;99.90;;;;;;5032371;28;20373;-67
2023/12/18 01:25:17;;;;;;;25.27;8.60;;;9.20;99.90;;;;;;5050108;28;20486;-66
2023/12/18 01:27:42;;;;;;;21.63;8.40;;;9.20;99.90;;;;;;5050772;28;20182;-66
2023/12/18 01:30:09;;;;;;;24.90;8.93;;;9.10;99.90;;;;;;5049542;28;20040;-66
2023/12/18 01:32:35;;;;;;;27.13;8.05;;;9.10;99.90;;;;;;5049935;28;20497;-66
2023/12/18 01:35:00;;;;;;;27.17;8.70;;;9.10;99.90;;;;;;5052125;28;20044;-67
2023/12/18 01:37:26;;;;;;;23.70;8.20;;;9.20;99.90;;;;;;5032906;28;20336;-67
2023/12/18 01:39:52;;;;;;;25.40;8.43;;;9.10;99.90;;;;;;5049575;28;20168;-67
2023/12/18 01:42:17;;;;;;;29.92;9.40;;;9.20;99.90;;;;;;5048387;28;20430;-68
2023/12/18 01:44:43;;;;;;;22.73;8.05;;;9.20;99.90;;;;;;5066260;28;20040;-67
2023/12/18 01:47:09;;;;;;;25.13;9.02;;;9.20;99.90;;;;;;5040388;28;20393;-67
2023/12/18 01:49:35;;;;;;;29.10;8.85;;;9.20;99.90;;;;;;5049574;28;20147;-67
2023/12/18 01:52:02;;;;;;;19.95;8.13;;;9.20;99.90;;;;;;5048269;28;20211;-67
2023/12/18 01:54:28;;;;;;;28.33;8.82;;;9.20;99.90;;;;;;5047210;28;20084;-67
2023/12/18 01:56:55;;;;;;;22.45;8.45;;;9.20;99.90;;;;;;5048147;28;20131;-67
2023/12/18 01:59:22;;;;;;;16.70;6.95;;;9.20;99.90;;;;;;5031241;28;20296;-67
2023/12/18 02:01:49;;;;;;;21.77;8.25;;;9.20;99.90;;;;;;5048797;28;20068;-67
2023/12/18 02:04:16;;;;;;;26.55;7.55;;;9.20;99.90;;;;;;5049197;28;20047;-67
2023/12/18 02:06:42;;;;;;;29.98;8.02;;;9.20;99.90;;;;;;5048000;28;20121;-67
2023/12/18 02:09:09;;;;;;;32.33;8.50;;;9.20;99.90;;;;;;5048294;28;20550;-67
2023/12/18 02:11:35;;;;;;;31.73;8.45;;;9.20;99.90;;;;;;5048838;28;20180;-67
2023/12/18 02:14:01;;;;;;;24.38;7.93;;;9.20;99.90;;;;;;5048745;28;20256;-67
2023/12/18 02:16:27;;;;;;;24.17;7.93;;;9.30;99.90;;;;;;5032021;28;20068;-67
2023/12/18 02:18:54;;;;;;;23.65;7.28;;;9.20;99.90;;;;;;5048936;28;20297;-67
2023/12/18 02:21:21;;;;;;;22.10;6.85;;;9.20;99.90;;;;;;5047998;28;20525;-67
2023/12/18 02:23:50;;;;;;;22.27;7.43;;;9.30;99.90;;;;;;5047982;28;20278;-67
2023/12/18 02:26:17;;;;;;;21.75;7.15;;;9.20;99.90;;;;;;5045608;28;20124;-67
2023/12/18 02:28:46;;;;;;;25.50;7.57;;;9.30;99.90;;;;;;5048432;28;20848;-67
2023/12/18 02:31:15;;;;;;;19.67;6.40;;;9.30;99.90;;;;;;5050738;28;21330;-67
2023/12/18 02:33:42;;;;;;;25.15;7.18;;;9.30;99.90;;;;;;5048685;28;20352;-67
2023/12/18 02:36:07;;;;;;;24.38;7.80;;;9.30;99.90;;;;;;5047262;28;20638;-67
2023/12/18 02:38:34;;;;;;;24.17;6.93;;;9.20;99.90;;;;;;5047959;28;20240;-67
2023/12/18 02:41:00;;;;;;;18.17;7.10;;;9.30;99.90;;;;;;5047245;28;20566;-67
2023/12/18 02:43:25;;;;;;;26.98;7.65;;;9.20;99.90;;;;;;5052719;28;20316;-67
2023/12/18 02:45:51;;;;;;;28.48;7.50;;;9.30;99.90;;;;;;5048292;28;20268;-67
2023/12/18 02:48:17;;;;;;;22.88;7.25;;;9.20;99.90;;;;;;5048199;28;20079;-67
2023/12/18 02:50:42;;;;;;;20.08;6.95;;;9.20;99.90;;;;;;5031539;28;20047;-67
2023/12/18 02:53:08;;;;;;;22.88;6.63;;;9.20;99.90;;;;;;5047633;28;20043;-67
2023/12/18 02:55:34;;;;;;;23.88;6.88;;;9.20;99.90;;;;;;5048497;28;20060;-67
2023/12/18 02:58:00;;;;;;;20.63;6.65;;;9.20;99.90;;;;;;5047823;28;20127;-67
2023/12/18 03:00:25;;;;;;;21.70;6.45;;;9.20;99.90;;;;;;5048680;28;20071;-67
2023/12/18 03:02:51;;;;;;;26.00;7.13;;;9.20;99.90;;;;;;5048186;28;20624;-67
2023/12/18 03:05:17;;;;;;;18.65;6.18;;;9.20;99.90;;;;;;5031117;28;20101;-67
2023/12/18 03:07:43;;;;;;;23.58;6.93;;;9.20;99.90;;;;;;5047182;28;20205;-67
2023/12/18 03:10:08;;;;;;;19.40;6.28;;;9.30;99.90;;;;;;5046848;28;20044;-67
2023/12/18 03:12:34;;;;;;;22.88;6.72;;;9.20;99.90;;;;;;5064941;28;20139;-67
2023/12/18 03:15:00;;;;;;;20.98;6.22;;;9.30;99.90;;;;;;5047363;28;20666;-67
2023/12/18 03:17:26;;;;;;;20.05;6.05;;;9.20;99.90;;;;;;5048289;28;20514;-67
2023/12/18 03:19:51;;;;;;;20.33;6.45;;;9.30;99.90;;;;;;5047802;28;20111;-67
2023/12/18 03:22:17;;;;;;;23.17;6.57;;;9.30;99.90;;;;;;5046879;28;20575;-67
2023/12/18 03:24:43;;;;;;;17.25;5.15;;;9.30;99.90;;;;;;5046901;28;20102;-68
2023/12/18 03:27:10;;;;;;;22.20;5.70;;;9.20;99.90;;;;;;5031490;28;20032;-67
2023/12/18 03:29:36;;;;;;;18.80;5.82;;;9.30;99.90;;;;;;5047037;28;20310;-67
2023/12/18 03:32:03;;;;;;;21.45;5.63;;;9.20;99.90;;;;;;5050788;28;20082;-67
2023/12/18 03:34:30;;;;;;;20.77;5.93;;;9.30;99.90;;;;;;5050056;28;20110;-67
2023/12/18 03:36:56;;;;;;;24.10;6.38;;;9.30;99.90;;;;;;5035624;28;20292;-67
2023/12/18 03:39:21;;;;;;;21.15;5.28;;;9.30;99.90;;;;;;5050641;28;20051;-67
2023/12/18 03:41:47;;;;;;;18.05;5.45;;;9.30;99.90;;;;;;5035202;28;20464;-67
2023/12/18 03:44:13;;;;;;;17.75;5.50;;;9.30;99.90;;;;;;5053680;28;20044;-67
2023/12/18 03:46:38;;;;;;;26.73;5.65;;;9.30;99.90;;;;;;5034804;28;20496;-67
2023/12/18 03:49:04;;;;;;;19.55;5.70;;;9.30;99.90;;;;;;5050490;28;20109;-67
2023/12/18 03:51:30;;;;;;;21.90;5.22;;;9.20;99.90;;;;;;5034565;28;20554;-67
2023/12/18 03:53:55;;;;;;;20.23;5.60;;;9.30;99.90;;;;;;5051932;28;20095;-67
2023/12/18 03:56:21;;;;;;;21.13;6.05;;;9.30;99.90;;;;;;5050897;28;20041;-67
2023/12/18 03:58:47;;;;;;;18.85;4.65;;;9.30;99.90;;;;;;5051126;28;20477;-67
2023/12/18 04:01:13;;;;;;;20.58;5.63;;;9.30;99.90;;;;;;5050958;28;20055;-67
2023/12/18 04:03:38;;;;;;;20.75;4.75;;;9.40;99.90;;;;;;5051261;28;20051;-67
2023/12/18 04:06:07;;;;;;;25.40;5.68;;;9.30;99.90;;;;;;5050526;28;20314;-67
2023/12/18 04:08:33;;;;;;;25.80;5.72;;;9.30;99.90;;;;;;5032965;28;20376;-67
2023/12/18 04:10:59;;;;;;;28.67;4.80;;;9.30;99.90;;;;;;5050454;28;20473;-68
2023/12/18 04:13:24;;;;;;;16.95;4.63;;;9.40;99.90;;;;;;5034831;28;20049;-66
2023/12/18 04:15:50;;;;;;;21.80;4.75;;;9.30;99.90;;;;;;5050737;28;20347;-67
2023/12/18 04:18:15;;;;;;;19.00;4.95;;;9.40;99.90;;;;;;5051036;28;20392;-67
2023/12/18 04:20:41;;;;;;;28.38;5.57;;;9.30;99.90;;;;;;5034072;28;20781;-67
2023/12/18 04:23:07;;;;;;;23.30;5.28;;;9.40;99.90;;;;;;5050279;28;20044;-67
2023/12/18 04:25:34;;;;;;;15.52;4.65;;;9.40;99.90;;;;;;5050412;28;20051;-67
2023/12/18 04:27:59;;;;;;;23.27;5.28;;;9.40;99.90;;;;;;5050345;28;20361;-67
2023/12/18 04:30:25;;;;;;;23.60;5.40;;;9.40;99.90;;;;;;5049666;28;20048;-67
2023/12/18 04:32:51;;;;;;;20.40;4.55;;;9.40;99.90;;;;;;5034390;28;20542;-67
2023/12/18 04:35:16;;;;;;;20.77;4.88;;;9.40;99.90;;;;;;5049668;28;20090;-67
2023/12/18 04:37:42;;;;;;;20.85;4.68;;;9.50;99.90;;;;;;5050753;28;20104;-67
2023/12/18 04:40:09;;;;;;;15.80;4.53;;;9.30;99.90;;;;;;5033842;28;20036;-67
2023/12/18 04:42:35;;;;;;;23.40;4.90;;;9.40;99.90;;;;;;5049506;28;20052;-67
2023/12/18 04:45:00;;;;;;;20.52;5.20;;;9.50;99.90;;;;;;5050356;28;20052;-67
2023/12/18 04:47:26;;;;;;;20.45;4.47;;;9.40;99.90;;;;;;5050214;28;20052;-67
2023/12/18 04:49:52;;;;;;;26.75;5.47;;;9.50;99.90;;;;;;5050551;28;20078;-67
2023/12/18 04:52:17;;;;;;;21.25;4.72;;;9.50;99.90;;;;;;5049351;28;20090;-67
2023/12/18 04:54:43;;;;;;;20.33;4.28;;;9.50;99.90;;;;;;5043417;28;20119;-67
2023/12/18 04:57:09;;;;;;;20.05;4.72;;;9.50;99.90;;;;;;5025123;28;20530;-67
2023/12/18 04:59:34;;;;;;;23.83;4.68;;;9.50;99.90;;;;;;5039935;28;20045;-67
2023/12/18 05:02:00;;;;;;;20.55;4.68;;;9.50;99.90;;;;;;5039501;28;20044;-67
2023/12/18 05:04:26;;;;;;;22.58;4.95;;;9.60;99.90;;;;;;5040584;28;20587;-67
2023/12/18 05:06:51;;;;;;;22.88;5.40;;;9.50;99.90;;;;;;5038945;28;20148;-67
2023/12/18 05:09:17;;;;;;;23.52;6.95;;;9.50;99.90;;;;;;5046412;28;20244;-68
2023/12/18 05:11:43;;;;;;;26.08;7.63;;;9.40;99.90;;;;;;5038721;28;20048;-68
2023/12/18 05:14:08;;;;;;;25.45;8.25;;;9.40;99.90;;;;;;5040203;28;20120;-68
2023/12/18 05:16:34;;;;;;;28.80;9.07;;;9.40;99.90;;;;;;5036719;28;20052;-68
2023/12/18 05:19:00;;;;;;;22.23;7.35;;;9.30;99.90;;;;;;5023541;28;20303;-68
2023/12/18 05:21:26;;;;;;;23.85;6.85;;;9.30;99.90;;;;;;5038388;28;20534;-68
2023/12/18 05:23:54;;;;;;;21.33;6.80;;;9.30;99.90;;;;;;5039634;28;20063;-68
2023/12/18 05:26:20;;;;;;;26.40;7.40;;;9.30;99.90;;;;;;5037573;28;20048;-68
2023/12/18 05:28:45;;;;;;;25.15;7.20;;;9.30;99.90;;;;;;5023244;28;20056;-68
2023/12/18 05:31:11;;;;;;;24.55;7.90;;;9.30;99.90;;;;;;5021475;28;20374;-68
2023/12/18 05:33:37;;;;;;;21.70;6.65;;;9.30;99.90;;;;;;5035325;28;20056;-69
2023/12/18 05:36:03;;;;;;;19.60;7.20;;;9.30;99.90;;;;;;5022359;28;20054;-69
2023/12/18 05:38:29;;;;;;;26.25;7.13;;;9.40;99.90;;;;;;5020549;28;20175;-67
2023/12/18 05:40:54;;;;;;;21.40;7.72;;;9.40;99.90;;;;;;5038783;28;20380;-67
2023/12/18 05:43:20;;;;;;;24.73;8.43;;;9.40;99.90;;;;;;5020151;28;20059;-67
2023/12/18 05:45:46;;;;;;;25.63;7.60;;;9.40;99.90;;;;;;5018933;28;20048;-67
2023/12/18 05:48:11;;;;;;;21.50;7.97;;;9.40;99.90;;;;;;5032130;28;20463;-66
2023/12/18 05:50:37;;;;;;;20.63;7.75;;;9.40;99.90;;;;;;5033707;28;20048;-67
2023/12/18 05:53:03;;;;;;;26.38;7.13;;;9.50;99.90;;;;;;5041356;28;20128;-67
2023/12/18 05:55:29;;;;;;;24.55;7.63;;;9.40;99.90;;;;;;5035298;28;20053;-66
2023/12/18 05:57:55;;;;;;;22.80;7.70;;;9.50;99.90;;;;;;5017066;28;20112;-67
2023/12/18 06:00:20;;;;;;;24.75;7.53;;;9.40;99.90;;;;;;5039086;28;20048;-66
2023/12/18 06:02:46;;;;;;;23.42;7.68;;;9.50;99.90;;;;;;5035841;28;20319;-67
2023/12/18 06:05:12;;;;;;;20.40;7.35;;;9.50;99.90;;;;;;5038223;28;20041;-67
2023/12/18 06:07:39;;;;;;;20.05;6.13;;;9.50;99.90;;;;;;5041495;28;20287;-67
2023/12/18 06:10:05;;;;;;;23.33;7.13;;;9.50;99.90;;;;;;5037223;28;20044;-66
2023/12/18 06:12:31;;;;;;;23.25;6.85;;;9.50;99.90;;;;;;5021519;28;20496;-67
2023/12/18 06:14:57;;;;;;;22.88;6.75;;;9.50;99.90;;;;;;5036966;28;20457;-67
2023/12/18 06:17:23;;;;;;;21.40;6.07;;;9.50;99.90;;;;;;5037848;28;20072;-68
2023/12/18 06:19:49;;;;;;;17.38;6.78;;;9.50;99.90;;;;;;5021320;28;20883;-67
2023/12/18 06:22:14;;;;;;;24.42;6.90;;;9.60;99.90;;;;;;5032648;28;20036;-67
2023/12/18 06:24:40;;;;;;;21.85;6.20;;;9.60;99.90;;;;;;5039588;28;20041;-67
2023/12/18 06:27:06;;;;;;;20.65;6.43;;;9.60;99.90;;;;;;5037883;28;20551;-67
2023/12/18 06:29:32;;;;;;;22.95;6.28;;;9.70;99.90;;;;;;5031437;28;20547;-67
2023/12/18 06:31:58;;;;;;;28.10;6.85;;;9.70;99.90;;;;;;5018092;28;20040;-67
2023/12/18 06:34:24;;;;;;;26.05;7.55;;;9.70;99.90;;;;;;5044738;28;20122;-67
2023/12/18 06:36:49;;;;;;;27.98;7.25;;;9.70;99.90;;;;;;5018922;28;20040;-67
2023/12/18 06:39:15;;;;;;;19.75;6.22;;;9.70;99.90;;;;;;5032528;28;20515;-67
2023/12/18 06:41:41;;;;;;;26.58;7.18;;;9.60;99.90;;;;;;5034952;28;20657;-68
2023/12/18 06:44:06;;;;;;;22.02;7.30;;;9.70;99.90;;;;;;5037440;28;20094;-67
2023/12/18 06:46:34;;;;;;;28.55;8.23;;;9.60;99.90;;;;;;5016365;28;20637;-67
2023/12/18 06:49:03;;;;;;;26.92;7.25;;;9.60;99.90;;;;;;5030586;28;20074;-67
2023/12/18 06:51:29;;;;;;;31.63;8.00;;;9.60;99.90;;;;;;5014864;28;20444;-67
2023/12/18 06:53:55;;;;;;;28.13;8.32;;;9.60;99.90;;;;;;5037581;28;20147;-68
2023/12/18 06:56:21;;;;;;;24.48;8.30;;;9.60;99.90;;;;;;5017515;28;20059;-67
2023/12/18 06:58:46;;;;;;;31.63;9.18;;;9.60;99.90;;;;;;5050772;28;20047;-68
2023/12/18 07:01:16;;;;;;;23.42;9.10;;;9.50;99.90;;;;;;5052636;28;20483;-67
2023/12/18 07:03:42;;;;;;;27.10;9.90;;;9.50;99.90;;;;;;5034041;28;20112;-66
2023/12/18 07:06:08;;;;;;;27.13;10.13;;;9.50;99.90;;;;;;5033198;28;20533;-67
2023/12/18 07:08:33;;;;;;;27.58;10.50;;;9.50;99.90;;;;;;5049700;28;20033;-66
2023/12/18 07:10:59;;;;;;;25.52;10.35;;;9.40;99.90;;;;;;5032553;28;20398;-67
2023/12/18 07:13:25;;;;;;;24.15;10.02;;;9.50;99.90;;;;;;5032075;28;20045;-66
2023/12/18 07:15:51;;;;;;;25.05;10.32;;;9.50;99.90;;;;;;5016419;28;20048;-66
2023/12/18 07:18:17;;;;;;;26.92;11.23;;;9.50;99.90;;;;;;5048438;28;20063;-66
2023/12/18 07:20:44;;;;;;;29.85;11.13;;;9.50;99.90;;;;;;5031595;28;20454;-66
2023/12/18 07:23:10;;;;;;;25.58;12.27;;;9.40;99.90;;;;;;5048404;28;20564;-66
2023/12/18 07:25:37;;;;;;;34.70;11.45;;;9.50;99.90;;;;;;5048086;28;20135;-66
2023/12/18 07:28:07;;;;;;;25.08;11.15;;;9.50;99.90;;;;;;5049030;28;20530;-66
2023/12/18 07:30:33;;;;;;;28.60;11.65;;;9.50;99.90;;;;;;5031473;28;20429;-66
2023/12/18 07:32:59;;;;;;;26.17;11.00;;;9.50;99.90;;;;;;5032002;28;20044;-66
2023/12/18 07:35:25;;;;;;;26.70;10.57;;;9.40;99.90;;;;;;5031156;28;20097;-66
2023/12/18 07:37:51;;;;;;;23.00;10.98;;;9.50;99.90;;;;;;5047250;28;20565;-66
2023/12/18 07:40:17;;;;;;;26.30;11.88;;;9.40;99.90;;;;;;5047997;28;20097;-66
2023/12/18 07:42:42;;;;;;;32.40;12.77;;;9.40;99.90;;;;;;5020183;28;20060;-66
2023/12/18 07:45:09;;;;;;;25.50;11.32;;;9.40;99.90;;;;;;5048910;28;20364;-66
2023/12/18 07:47:37;;;;;;;33.42;12.77;;;9.50;99.90;;;;;;5030735;28;20554;-66
2023/12/18 07:50:07;;;;;;;27.35;11.55;;;9.50;99.90;;;;;;5030966;28;20044;-66
2023/12/18 07:52:33;;;;;;;29.60;12.20;;;9.40;99.90;;;;;;5029856;28;20036;-66
2023/12/18 07:55:00;;;;;;;30.45;12.02;;;9.50;99.90;;;;;;5020121;28;20628;-66
2023/12/18 07:57:25;;;;;;;30.40;13.05;;;9.50;99.90;;;;;;5015939;28;20055;-66
2023/12/18 07:59:51;;;;;;;36.85;13.38;;;9.50;99.90;;;;;;5047629;28;20048;-66
2023/12/18 08:02:17;;;;;;;33.67;13.77;;;9.40;99.90;;;;;;5048336;28;20205;-65
2023/12/18 08:04:43;;;;;;;24.27;11.32;;;9.40;99.90;;;;;;5047972;28;20352;-66
2023/12/18 08:07:10;;;;;;;36.22;13.30;;;9.50;99.90;;;;;;5043603;28;20078;-65
2023/12/18 08:09:35;;;;;;;40.13;13.15;;;9.40;99.90;;;;;;5026738;28;20059;-66
2023/12/18 08:12:01;;;;;;;26.92;12.27;;;9.40;99.90;;;;;;5046721;28;20086;-66
2023/12/18 08:14:27;;;;;;;31.15;12.70;;;9.40;99.90;;;;;;5046731;28;20088;-66
2023/12/18 08:16:53;;;;;;;35.42;12.88;;;9.40;99.90;;;;;;5046553;28;20040;-66
2023/12/18 08:19:18;;;;;;;25.80;12.65;;;9.50;99.90;;;;;;5033681;28;20071;-66
2023/12/18 08:21:44;;;;;;;29.63;11.90;;;9.50;99.90;;;;;;5033805;28;20095;-66
2023/12/18 08:24:10;;;;;;;28.83;13.15;;;9.50;99.90;;;;;;5033910;28;20078;-66
2023/12/18 08:26:37;;;;;;;28.20;12.45;;;9.60;99.90;;;;;;5048737;28;20048;-66
2023/12/18 08:29:04;;;;;;;30.33;11.75;;;9.50;99.90;;;;;;5033587;28;20150;-65
2023/12/18 08:31:30;;;;;;;33.65;12.38;;;9.50;99.90;;;;;;5050226;28;20137;-66
2023/12/18 08:33:56;;;;;;;34.28;12.88;;;9.60;99.90;;;;;;5033760;28;20486;-66
2023/12/18 08:36:22;;;;;;;29.08;11.82;;;9.50;99.90;;;;;;5032622;28;20133;-65
2023/12/18 08:38:47;;;;;;;34.55;11.07;;;9.60;99.90;;;;;;5030701;28;20076;-66
2023/12/18 08:41:13;;;;;;;39.25;12.68;;;9.60;99.90;;;;;;5049883;28;20040;-66
2023/12/18 08:43:39;;;;;;;29.45;12.15;;;9.60;99.90;;;;;;5043049;28;20512;-66
2023/12/18 08:46:05;;;;;;;32.83;13.05;;;9.60;99.90;;;;;;5022055;28;20040;-66
2023/12/18 08:48:31;;;;;;;30.63;12.15;;;9.60;99.90;;;;;;5050275;28;20122;-66
2023/12/18 08:50:57;;;;;;;29.02;12.05;;;9.60;99.90;;;;;;5034696;28;20609;-66
2023/12/18 08:53:23;;;;;;;31.48;12.93;;;9.60;99.90;;;;;;5049679;28;20056;-66
2023/12/18 08:55:48;;;;;;;42.60;13.15;;;9.70;99.90;;;;;;5050850;28;20044;-66
2023/12/18 08:58:14;;;;;;;32.05;13.10;;;9.60;99.90;;;;;;5034568;28;20637;-66
2023/12/18 09:00:40;;;;;;;32.30;13.40;;;9.60;99.90;;;;;;5034134;28;20426;-66
2023/12/18 09:03:06;;;;;;;37.28;14.60;;;9.70;99.90;;;;;;5049749;28;20670;-66
2023/12/18 09:05:31;;;;;;;32.53;12.80;;;9.70;99.90;;;;;;5049451;28;20045;-67
2023/12/18 09:07:57;;;;;;;31.50;13.32;;;9.70;99.90;;;;;;5048365;28;20306;-67
2023/12/18 09:10:25;;;;;;;31.10;12.48;;;9.70;99.90;;;;;;5048370;28;20342;-66
2023/12/18 09:12:53;;;;;;;29.70;11.38;;;9.70;99.90;;;;;;5051986;28;20036;-67
2023/12/18 09:15:19;;;;;;;33.17;12.57;;;9.70;99.90;;;;;;5032571;28;20064;-66
2023/12/18 09:17:45;;;;;;;32.35;12.90;;;9.70;99.90;;;;;;5040251;28;20427;-66
2023/12/18 09:20:11;;;;;;;34.42;13.27;;;9.70;99.90;;;;;;5033362;28;20037;-66
2023/12/18 09:22:37;;;;;;;30.15;12.20;;;9.80;99.90;;;;;;5025648;28;20032;-66
2023/12/18 09:25:03;;;;;;;29.73;11.40;;;9.70;99.90;;;;;;5033505;28;20256;-66
2023/12/18 09:27:29;;;;;;;30.73;11.40;;;9.80;99.90;;;;;;5033588;28;20044;-66
2023/12/18 09:29:55;;;;;;;35.78;12.60;;;9.80;99.90;;;;;;5033289;28;20044;-66
2023/12/18 09:32:21;;;;;;;31.90;12.73;;;9.80;99.90;;;;;;5049536;28;20661;-66
2023/12/18 09:34:47;;;;;;;37.58;14.25;;;9.80;99.90;;;;;;5049101;28;20461;-66
2023/12/18 09:37:13;;;;;;;33.55;13.27;;;9.80;99.90;;;;;;5049493;28;20037;-67
2023/12/18 09:39:42;;;;;;;28.83;13.30;;;9.70;99.90;;;;;;5050057;28;20036;-65
2023/12/18 09:42:10;;;;;;;24.73;12.02;;;9.70;99.90;;;;;;5033723;28;20605;-66
2023/12/18 09:44:37;;;;;;;34.17;13.25;;;9.70;99.90;;;;;;5050303;28;20098;-68
2023/12/18 09:47:03;;;;;;;36.92;14.75;;;9.70;99.90;;;;;;5050249;28;20159;-68
2023/12/18 09:49:28;;;;;;;33.10;14.93;;;9.70;99.90;;;;;;5032920;28;20044;-68
2023/12/18 09:52:03;;;;;;;33.40;14.07;;;9.70;99.90;;;;;;5050042;28;20435;-68
2023/12/18 09:54:30;;;;;;;34.35;14.20;;;9.70;99.90;;;;;;5049240;28;20057;-68
2023/12/18 09:56:57;;;;;;;35.83;13.63;;;9.80;99.90;;;;;;5050214;28;20044;-68
2023/12/18 09:59:24;;;;;;;32.03;15.15;;;9.80;99.90;;;;;;5049750;28;20045;-68
2023/12/18 10:01:51;;;;;;;30.05;14.50;;;9.70;99.90;;;;;;5033669;28;20048;-68
2023/12/18 10:04:17;;;;;;;33.85;14.38;;;9.70;99.90;;;;;;5048778;28;20075;-68
2023/12/18 10:06:44;;;;;;;33.83;14.60;;;9.70;99.90;;;;;;5050088;28;20403;-68
2023/12/18 10:09:17;;;;;;;31.17;14.45;;;9.70;99.90;;;;;;5048859;28;20036;-68
2023/12/18 10:11:45;;;;;;;30.33;14.45;;;9.70;99.90;;;;;;5042018;28;20528;-68
2023/12/18 10:14:14;;;;;;;32.22;15.25;;;9.70;99.90;;;;;;5049133;28;20040;-68
2023/12/18 10:16:40;;;;;;;33.78;15.23;;;9.80;99.90;;;;;;5051369;28;20043;-68
2023/12/18 10:19:08;;;;;;;36.67;15.95;;;9.80;99.90;;;;;;5049553;28;20287;-68
2023/12/18 10:21:34;;;;;;;30.90;14.93;;;9.80;99.90;;;;;;5023417;28;20151;-68
2023/12/18 10:24:00;;;;;;;34.13;15.20;;;9.80;99.90;;;;;;5049485;28;20059;-68
2023/12/18 10:26:27;;;;;;;32.22;16.30;;;9.70;99.90;;;;;;5049234;28;20048;-68
2023/12/18 10:28:53;;;;;;;33.35;16.40;;;9.80;99.90;;;;;;5049589;28;21015;-68
2023/12/18 10:31:19;;;;;;;30.98;16.52;;;9.80;99.90;;;;;;5032893;28;20556;-67
2023/12/18 10:33:45;;;;;;;38.45;16.88;;;9.80;99.90;;;;;;5050904;28;20037;-67
2023/12/18 10:36:11;;;;;;;35.35;17.88;;;9.80;99.90;;;;;;5049349;28;20044;-68
2023/12/18 10:38:41;;;;;;;32.05;17.10;;;9.70;99.90;;;;;;5049265;28;20056;-67
2023/12/18 10:41:09;;;;;;;39.55;18.20;;;9.80;99.90;;;;;;5065265;28;20085;-68
2023/12/18 10:43:36;;;;;;;36.20;18.50;;;9.80;99.90;;;;;;5049444;28;20048;-68
2023/12/18 10:46:06;;;;;;;30.13;17.67;;;9.70;99.90;;;;;;5047843;28;20561;-68
2023/12/18 10:48:33;;;;;;;36.25;19.38;;;9.70;99.90;;;;;;5056113;28;20141;-68
2023/12/18 10:51:01;;;;;;;39.80;20.02;;;9.70;99.90;;;;;;5047958;28;20044;-68
2023/12/18 10:53:27;;;;;;;37.88;19.25;;;9.60;99.90;;;;;;5031769;28;20055;-68
2023/12/18 10:55:56;;;;;;;34.67;20.33;;;9.70;99.90;;;;;;5047928;28;20219;-67
2023/12/18 10:58:22;;;;;;;37.90;19.65;;;9.70;99.90;;;;;;5048259;28;20103;-67
2023/12/18 11:00:50;;;;;;;39.63;20.30;;;9.60;99.90;;;;;;5049325;28;20040;-67
2023/12/18 11:03:19;;;;;;;43.67;21.42;;;9.60;99.90;;;;;;5050598;28;20033;-68
2023/12/18 11:05:48;;;;;;;41.72;20.40;;;9.60;99.90;;;;;;5048458;28;20044;-68
2023/12/18 11:08:13;;;;;;;37.45;20.38;;;9.70;99.90;;;;;;5032905;28;20059;-68
2023/12/18 11:10:40;;;;;;;38.90;21.30;;;9.70;99.90;;;;;;5032230;28;20392;-68
2023/12/18 11:13:27;;;;;;;38.70;20.92;;;9.70;99.90;;;;;;5048901;28;20040;-68
2023/12/18 11:16:14;;;;;;;41.40;22.10;;;9.70;99.90;;;;;;5049135;28;20044;-68
2023/12/18 11:18:46;;;;;;;37.63;20.42;;;9.70;99.90;;;;;;5048847;28;20510;-68
2023/12/18 11:21:12;;;;;;;41.60;22.25;;;9.70;99.90;;;;;;5032421;28;20603;-68
2023/12/18 11:23:41;;;;;;;39.00;21.25;;;9.70;99.90;;;;;;5048356;28;20040;-68
2023/12/18 11:26:12;;;;;;;43.22;22.73;;;9.70;99.90;;;;;;5048954;28;20039;-68
2023/12/18 11:28:38;;;;;;;43.90;22.60;;;9.80;99.90;;;;;;5048755;28;20353;-68
2023/12/18 11:31:05;;;;;;;47.53;21.63;;;9.80;99.90;;;;;;5050803;28;20233;-68
2023/12/18 11:33:32;;;;;;;38.22;21.58;;;9.80;99.90;;;;;;5032360;28;20036;-67
2023/12/18 11:35:57;;;;;;;36.60;21.45;;;9.80;99.90;;;;;;5031660;28;20066;-67
2023/12/18 11:38:24;;;;;;;37.85;21.08;;;9.90;99.90;;;;;;5022303;28;20457;-67
2023/12/18 11:40:52;;;;;;;38.63;20.67;;;9.90;99.90;;;;;;5032099;28;20517;-67
2023/12/18 11:43:37;;;;;;;38.88;21.33;;;9.80;99.90;;;;;;5048050;28;20123;-67
2023/12/18 11:46:08;;;;;;;40.67;20.95;;;9.90;99.90;;;;;;5022271;28;20032;-68
2023/12/18 11:48:34;;;;;;;36.35;19.42;;;9.90;99.90;;;;;;5031850;28;20139;-67
2023/12/18 11:51:02;;;;;;;40.08;20.63;;;9.90;99.90;;;;;;5048697;28;20127;-67
2023/12/18 11:53:32;;;;;;;37.50;20.50;;;9.90;99.90;;;;;;5022295;28;20563;-67
2023/12/18 11:55:58;;;;;;;32.80;19.45;;;9.90;99.90;;;;;;5052090;28;20490;-67
2023/12/18 11:58:26;;;;;;;38.97;20.60;;;9.90;99.90;;;;;;5051354;28;20044;-68
2023/12/18 12:00:52;;;;;;;42.55;21.02;;;10.00;99.90;;;;;;5017842;28;20577;-68
2023/12/18 12:03:18;;;;;;;37.13;19.65;;;9.90;99.90;;;;;;5051092;28;20068;-68
2023/12/18 12:05:46;;;;;;;36.85;19.75;;;9.90;99.90;;;;;;5037862;28;20105;-68
2023/12/18 12:08:12;;;;;;;39.88;19.63;;;9.90;99.90;;;;;;5053181;28;20110;-68
2023/12/18 12:10:49;;;;;;;41.50;20.20;;;9.90;99.90;;;;;;5050882;28;20270;-68
2023/12/18 12:13:23;;;;;;;36.05;17.77;;;9.90;99.90;;;;;;5051073;28;20075;-67
2023/12/18 12:15:58;;;;;;;36.05;19.30;;;9.90;99.90;;;;;;5051310;28;20047;-67
2023/12/18 12:18:28;;;;;;;31.75;17.45;;;9.90;99.90;;;;;;5051829;28;20075;-67
2023/12/18 12:20:55;;;;;;;34.20;18.00;;;10.00;99.90;;;;;;5054141;28;20052;-68
2023/12/18 12:23:21;;;;;;;34.67;18.80;;;9.90;99.90;;;;;;5035958;28;20070;-67
2023/12/18 12:25:49;;;;;;;35.78;19.35;;;10.00;99.90;;;;;;5052267;28;20052;-68
2023/12/18 12:28:17;;;;;;;30.52;19.00;;;10.00;99.90;;;;;;5052065;28;20052;-68
2023/12/18 12:30:44;;;;;;;40.92;20.38;;;9.90;99.90;;;;;;5051760;28;20309;-68
2023/12/18 12:33:10;;;;;;;31.27;16.15;;;10.00;99.90;;;;;;5050806;28;20104;-67
2023/12/18 12:35:36;;;;;;;36.70;18.55;;;10.10;99.90;;;;;;5051658;28;20044;-68
2023/12/18 12:38:03;;;;;;;28.60;17.02;;;10.00;99.90;;;;;;5051980;28;20040;-68